Time;durP1;ratioP1;P1;durP2;ratioP2;P2;SDS_P1;SDS_P2;PMS_P1;PMS_P2;Temp;Humidity;BMP_temperature;BMP_pressure;BME280_temperature;BME280_humidity;BME280_pressure;Samples;Min_cycle;Max_cycle;Signal;HPM_P1;HPM_P2
2022/04/25 00:01:36;;;;;;;;;22.50;18.50;;;;;14.28;53.58;100558.28;5078289;28;45266;-70
2022/04/25 00:04:03;;;;;;;;;19.00;17.75;;;;;14.35;53.08;100562.88;5074869;28;45272;-70
2022/04/25 00:06:29;;;;;;;;;19.25;16.75;;;;;14.36;52.83;100571.94;5065843;28;45622;-70
2022/04/25 00:08:54;;;;;;;;;25.00;22.00;;;;;14.31;53.12;100566.16;5073225;28;45285;-69
2022/04/25 00:11:19;;;;;;;;;18.00;17.75;;;;;14.28;53.60;100574.69;5076225;28;45813;-69
2022/04/25 00:13:45;;;;;;;;;18.00;16.25;;;;;14.32;53.02;100559.63;5075216;27;45211;-69
2022/04/25 00:16:10;;;;;;;;;21.75;17.75;;;;;14.37;52.53;100559.97;5074966;28;45747;-69
2022/04/25 00:18:35;;;;;;;;;21.25;19.00;;;;;14.34;53.07;100547.50;5070818;28;45431;-69
2022/04/25 00:21:01;;;;;;;;;19.00;16.00;;;;;14.37;52.62;100552.63;5073387;28;45389;-69
2022/04/25 00:23:26;;;;;;;;;19.25;14.75;;;;;14.27;53.00;100551.13;5068515;28;45404;-69
2022/04/25 00:25:52;;;;;;;;;19.25;17.00;;;;;14.21;52.83;100562.75;5075437;28;47420;-69
2022/04/25 00:28:18;;;;;;;;;17.25;14.50;;;;;14.19;53.00;100573.00;5084083;27;45390;-69
2022/04/25 00:30:44;;;;;;;;;21.00;16.75;;;;;14.26;52.84;100571.28;5081267;27;45563;-69
2022/04/25 00:33:09;;;;;;;;;20.75;17.75;;;;;14.21;52.78;100573.69;5074679;28;45327;-69
2022/04/25 00:35:35;;;;;;;;;17.75;17.75;;;;;14.21;52.57;100571.81;5065809;28;45485;-68
2022/04/25 00:38:00;;;;;;;;;23.00;17.67;;;;;14.30;52.24;100573.50;5081998;28;47150;-68
2022/04/25 00:40:25;;;;;;;;;22.00;18.50;;;;;14.22;52.79;100559.00;5079854;28;45274;-68
2022/04/25 00:42:51;;;;;;;;;17.50;17.50;;;;;14.14;53.35;100573.53;5072750;28;45352;-68
2022/04/25 00:45:17;;;;;;;;;15.67;12.67;;;;;14.14;53.09;100565.34;5074457;28;45354;-68
2022/04/25 00:47:44;;;;;;;;;15.33;14.67;;;;;14.08;53.21;100559.72;5083214;27;45330;-68
2022/04/25 00:50:11;;;;;;;;;22.00;17.00;;;;;14.09;53.08;100559.56;5081888;27;45248;-68
2022/04/25 00:52:37;;;;;;;;;16.25;16.00;;;;;14.00;53.68;100555.16;5083087;27;45264;-68
2022/04/25 00:55:08;;;;;;;;;16.67;15.00;;;;;13.89;54.31;100570.00;5082508;27;45342;-68
2022/04/25 00:57:34;;;;;;;;;19.75;17.00;;;;;13.66;54.22;100552.69;5077960;28;47237;-68
2022/04/25 01:00:00;;;;;;;;;18.00;16.00;;;;;13.81;54.13;100570.03;5081875;28;45298;-68
2022/04/25 01:02:27;;;;;;;;;16.75;13.75;;;;;13.80;53.77;100570.22;5085358;27;45337;-68
2022/04/25 01:04:56;;;;;;;;;17.50;16.50;;;;;13.79;54.08;100580.28;5076401;28;45301;-69
2022/04/25 01:07:21;;;;;;;;;20.75;18.00;;;;;13.68;54.38;100568.84;5081931;27;45463;-68
2022/04/25 01:09:47;;;;;;;;;21.00;15.75;;;;;13.66;54.35;100562.75;5071400;27;45271;-68
2022/04/25 01:12:12;;;;;;;;;18.00;14.00;;;;;13.60;55.33;100567.00;5081347;27;45704;-68
2022/04/25 01:14:38;;;;;;;;;20.50;18.00;;;;;13.64;54.97;100568.38;5070898;28;45531;-68
2022/04/25 01:17:04;;;;;;;;;15.00;15.00;;;;;13.55;55.51;100580.31;5073137;28;47332;-68
2022/04/25 01:19:29;;;;;;;;;23.25;20.25;;;;;13.47;55.22;100558.47;5069879;27;45417;-68
2022/04/25 01:22:01;;;;;;;;;23.75;18.00;;;;;13.40;55.80;100568.38;5084045;28;45361;-68
2022/04/25 01:27:18;;;;;;;;;20.25;17.25;;;;;13.45;55.46;100563.25;5085801;28;45438;-68
2022/04/25 01:29:46;;;;;;;;;23.50;18.00;;;;;13.30;56.45;100559.50;5092858;27;45645;-68
2022/04/25 01:32:12;;;;;;;;;20.00;16.75;;;;;13.23;56.29;100559.31;5084836;28;45383;-68
2022/04/25 01:34:38;;;;;;;;;17.75;16.50;;;;;13.22;56.42;100560.38;5078778;27;45359;-69
2022/04/25 01:37:08;;;;;;;;;21.50;18.00;;;;;13.34;56.12;100571.78;5085779;27;46617;-68
2022/04/25 01:39:51;;;;;;;;;28.25;20.00;;;;;13.22;56.71;100549.47;5065750;28;45416;-68
2022/04/25 01:42:17;;;;;;;;;22.50;19.50;;;;;13.28;56.77;100575.22;5084134;28;45337;-68
2022/04/25 01:44:43;;;;;;;;;18.50;14.75;;;;;13.17;57.07;100576.38;5085396;27;45295;-68
2022/04/25 01:47:09;;;;;;;;;21.25;17.50;;;;;13.11;57.13;100564.25;5085622;27;45451;-68
2022/04/25 01:49:36;;;;;;;;;21.00;18.00;;;;;13.19;56.88;100572.47;5085522;27;45385;-68
2022/04/25 01:52:05;;;;;;;;;21.75;20.50;;;;;13.07;57.15;100568.34;5085364;28;45240;-68
2022/04/25 01:54:32;;;;;;;;;21.75;16.00;;;;;13.03;57.03;100577.88;5076047;27;45365;-70
2022/04/25 01:56:58;;;;;;;;;17.75;17.00;;;;;12.82;58.34;100585.66;5083293;28;46605;-68
2022/04/25 01:59:24;;;;;;;;;22.25;20.00;;;;;12.86;58.14;100589.75;5073081;28;45405;-68
2022/04/25 02:01:51;;;;;;;;;21.00;21.00;;;;;12.82;58.29;100591.13;5082132;28;45461;-68
2022/04/25 02:04:16;;;;;;;;;19.00;17.25;;;;;12.83;58.51;100592.84;5076030;27;45485;-69
2022/04/25 02:06:42;;;;;;;;;19.75;17.00;;;;;12.86;58.16;100581.56;5078498;28;45561;-68
2022/04/25 02:09:08;;;;;;;;;23.50;19.50;;;;;12.87;58.47;100595.06;5074296;27;45206;-69
2022/04/25 02:11:33;;;;;;;;;15.75;15.75;;;;;12.93;57.77;100600.88;5076791;28;45515;-68
2022/04/25 02:13:59;;;;;;;;;21.50;15.00;;;;;12.96;57.97;100608.72;5073484;28;45429;-68
2022/04/25 02:16:25;;;;;;;;;20.25;17.00;;;;;13.04;57.99;100601.41;5074914;28;45425;-68
2022/04/25 02:18:52;;;;;;;;;24.00;19.75;;;;;13.02;58.17;100592.53;5070227;28;45370;-68
2022/04/25 02:21:18;;;;;;;;;21.75;20.75;;;;;12.93;58.46;100604.44;5077713;28;45391;-69
2022/04/25 02:23:44;;;;;;;;;21.25;16.25;;;;;12.97;58.05;100600.38;5070483;28;45320;-69
2022/04/25 02:26:09;;;;;;;;;21.00;17.00;;;;;13.00;58.07;100610.94;5077629;28;45244;-69
2022/04/25 02:28:36;;;;;;;;;21.00;19.00;;;;;12.96;58.43;100606.84;5095601;27;45304;-69
2022/04/25 02:31:04;;;;;;;;;16.25;12.25;;;;;12.96;58.67;100609.56;5080745;27;45455;-69
2022/04/25 02:33:30;;;;;;;;;21.75;18.00;;;;;12.58;59.91;100602.81;5085711;27;45239;-69
2022/04/25 02:35:55;;;;;;;;;18.25;17.00;;;;;12.52;60.21;100588.97;5084214;27;46551;-69
2022/04/25 02:38:21;;;;;;;;;23.75;21.50;;;;;12.54;60.51;100603.31;5085075;27;45321;-69
2022/04/25 02:40:46;;;;;;;;;20.00;18.00;;;;;12.68;60.01;100610.84;5074858;28;45485;-68
2022/04/25 02:43:12;;;;;;;;;22.50;18.75;;;;;12.49;60.83;100604.63;5073748;28;45279;-69
2022/04/25 02:45:37;;;;;;;;;23.00;21.50;;;;;12.32;61.22;100607.47;5072171;28;45311;-69
2022/04/25 02:48:03;;;;;;;;;26.50;23.00;;;;;12.45;61.16;100600.53;5085015;27;45298;-68
2022/04/25 02:50:29;;;;;;;;;24.50;22.75;;;;;12.46;61.64;100602.25;5072023;27;45598;-69
2022/04/25 02:52:54;;;;;;;;;20.75;18.25;;;;;12.55;61.53;100605.00;5085483;28;45472;-69
2022/04/25 02:55:20;;;;;;;;;24.25;20.00;;;;;12.67;60.82;100610.00;5072497;27;45471;-70
2022/04/25 02:57:46;;;;;;;;;20.00;19.25;;;;;12.75;60.81;100604.56;5082598;27;45321;-69
2022/04/25 03:00:12;;;;;;;;;25.25;23.50;;;;;12.82;60.68;100612.94;5071225;28;45314;-69
2022/04/25 03:02:37;;;;;;;;;25.75;19.50;;;;;12.78;60.67;100611.56;5085350;27;45247;-69
2022/04/25 03:05:03;;;;;;;;;22.00;20.00;;;;;12.67;60.99;100609.13;5082282;28;48058;-69
2022/04/25 03:07:28;;;;;;;;;25.00;22.75;;;;;12.66;61.03;100612.88;5079625;27;45255;-69
2022/04/25 03:09:54;;;;;;;;;25.25;22.75;;;;;12.63;61.13;100614.09;5068785;27;45243;-69
2022/04/25 03:12:19;;;;;;;;;25.25;22.75;;;;;12.46;62.02;100620.47;5077442;28;45465;-69
2022/04/25 03:14:45;;;;;;;;;19.50;18.50;;;;;12.56;61.34;100620.34;5067400;27;45503;-69
2022/04/25 03:17:11;;;;;;;;;33.25;28.00;;;;;12.52;61.75;100610.78;5077115;28;45466;-69
2022/04/25 03:19:37;;;;;;;;;25.50;20.75;;;;;12.33;62.60;100611.91;5065084;28;45447;-69
2022/04/25 03:22:04;;;;;;;;;29.50;21.00;;;;;12.37;62.74;100616.00;5076271;27;45438;-69
2022/04/25 03:24:30;;;;;;;;;29.00;23.75;;;;;12.36;62.83;100617.00;5066349;27;46630;-68
2022/04/25 03:26:56;;;;;;;;;31.00;26.25;;;;;12.27;63.10;100613.38;5083026;28;45325;-69
2022/04/25 03:29:22;;;;;;;;;26.75;23.50;;;;;12.14;63.82;100601.22;5092678;27;45214;-69
2022/04/25 03:31:47;;;;;;;;;25.00;20.50;;;;;12.26;63.18;100616.28;5082128;28;45460;-69
2022/04/25 03:34:12;;;;;;;;;28.25;25.00;;;;;12.26;63.20;100614.44;5084239;28;46156;-68
2022/04/25 03:36:38;;;;;;;;;22.75;19.75;;;;;12.29;62.96;100622.25;5081902;28;45464;-69
2022/04/25 03:39:04;;;;;;;;;27.00;23.75;;;;;12.32;62.90;100626.53;5084098;27;45270;-69
2022/04/25 03:41:31;;;;;;;;;29.25;26.25;;;;;12.32;63.19;100616.50;5084143;27;45401;-69
2022/04/25 03:43:56;;;;;;;;;26.75;26.00;;;;;12.20;63.44;100623.22;5083978;27;46682;-69
2022/04/25 03:46:22;;;;;;;;;28.00;24.75;;;;;12.25;62.98;100620.03;5082412;27;45403;-68
2022/04/25 03:48:47;;;;;;;;;23.75;23.00;;;;;12.20;63.23;100619.69;5079696;27;45329;-69
2022/04/25 03:51:12;;;;;;;;;29.25;27.75;;;;;12.24;63.36;100621.91;5074877;28;45452;-68
2022/04/25 03:53:38;;;;;;;;;26.75;25.25;;;;;12.19;63.76;100624.28;5079215;27;45361;-68
2022/04/25 03:58:48;;;;;;;;;25.75;24.50;;;;;12.01;64.64;100629.75;5074650;28;45332;-68
2022/04/25 04:01:14;;;;;;;;;23.50;18.50;;;;;12.14;63.88;100639.38;5076975;28;45385;-68
2022/04/25 04:03:39;;;;;;;;;28.50;27.75;;;;;12.14;64.28;100640.22;5077609;27;45551;-68
2022/04/25 04:06:05;;;;;;;;;25.25;23.50;;;;;12.06;65.02;100638.28;5073915;28;45877;-68
2022/04/25 04:08:31;;;;;;;;;26.00;23.25;;;;;12.15;64.33;100641.06;5077012;28;45234;-68
2022/04/25 04:10:56;;;;;;;;;26.50;22.25;;;;;12.12;63.48;100625.94;5074496;28;45377;-68
2022/04/25 04:13:22;;;;;;;;;31.50;28.00;;;;;12.16;63.70;100634.63;5070185;28;47994;-68
2022/04/25 04:15:47;;;;;;;;;35.25;27.25;;;;;12.19;64.17;100654.22;5075499;28;45408;-68
2022/04/25 04:18:12;;;;;;;;;37.00;27.00;;;;;12.00;64.54;100648.97;5070029;27;45463;-68
2022/04/25 04:20:38;;;;;;;;;30.75;28.25;;;;;11.89;65.37;100641.09;5071831;28;45471;-70
2022/04/25 04:23:04;;;;;;;;;28.50;24.75;;;;;11.86;65.65;100655.88;5069051;27;45995;-70
2022/04/25 04:25:32;;;;;;;;;31.00;26.25;;;;;11.75;66.48;100666.16;5070238;28;45438;-70
2022/04/25 04:27:57;;;;;;;;;32.75;31.50;;;;;11.82;65.82;100661.78;5087947;27;45255;-70
2022/04/25 04:30:22;;;;;;;;;24.75;22.00;;;;;11.83;65.62;100664.38;5085504;27;45618;-69
2022/04/25 04:32:48;;;;;;;;;32.50;29.75;;;;;11.84;65.63;100665.19;5081668;27;46413;-68
2022/04/25 04:36:17;;;;;;;;;28.50;23.75;;;;;11.89;64.89;100671.88;5073736;28;46121;-68
2022/04/25 04:38:02;;;;;;;;;35.75;30.75;;;;;11.85;65.61;100662.31;5083032;28;45372;-68
2022/04/25 04:40:30;;;;;;;;;35.00;29.00;;;;;11.83;65.58;100664.38;5072967;28;45237;-67
2022/04/25 04:42:57;;;;;;;;;29.50;23.75;;;;;11.81;65.50;100671.81;5082859;27;45397;-70
2022/04/25 04:45:23;;;;;;;;;28.50;26.25;;;;;11.83;64.63;100666.22;5070186;27;45400;-68
2022/04/25 04:47:48;;;;;;;;;37.50;33.00;;;;;11.66;66.63;100667.94;5082675;27;45287;-69
2022/04/25 04:50:14;;;;;;;;;34.75;32.00;;;;;11.55;67.34;100674.44;5070225;27;45316;-68
2022/04/25 04:52:47;;;;;;;;;34.50;30.00;;;;;11.64;66.22;100680.81;5082487;27;46322;-68
2022/04/25 04:55:13;;;;;;;;;34.75;33.00;;;;;11.54;67.08;100678.19;5070157;27;45409;-69
2022/04/25 04:57:40;;;;;;;;;51.25;40.50;;;;;11.60;66.85;100693.06;5079870;27;45953;-68
2022/04/25 05:00:07;;;;;;;;;41.75;33.25;;;;;11.55;67.26;100693.50;5068549;27;45393;-68
2022/04/25 05:02:33;;;;;;;;;36.50;30.50;;;;;11.43;67.91;100704.78;5075726;28;48125;-69
2022/04/25 05:04:59;;;;;;;;;48.75;36.25;;;;;11.13;68.66;100708.72;5071261;27;45197;-69
2022/04/25 05:07:25;;;;;;;;;41.50;34.25;;;;;11.39;68.75;100719.72;5077532;27;45381;-69
2022/04/25 05:09:51;;;;;;;;;43.25;35.00;;;;;11.38;67.95;100712.56;5066392;27;45390;-69
2022/04/25 05:12:16;;;;;;;;;39.25;34.50;;;;;11.45;67.43;100714.50;5070799;27;46866;-68
2022/04/25 05:14:42;;;;;;;;;47.00;38.00;;;;;11.47;67.73;100711.63;5071820;28;45454;-69
2022/04/25 05:17:07;;;;;;;;;39.25;33.25;;;;;11.38;67.82;100720.72;5074688;28;45361;-69
2022/04/25 05:19:32;;;;;;;;;44.50;38.25;;;;;11.41;67.88;100721.25;5065239;27;45447;-70
2022/04/25 05:21:58;;;;;;;;;42.25;33.75;;;;;11.53;67.68;100730.06;5079258;28;48043;-69
2022/04/25 05:24:23;;;;;;;;;42.25;34.25;;;;;11.60;67.43;100736.59;5081200;27;45290;-68
2022/04/25 05:26:49;;;;;;;;;39.50;35.50;;;;;11.32;68.43;100731.19;5079688;28;45714;-69
2022/04/25 05:29:14;;;;;;;;;39.50;35.25;;;;;11.38;68.40;100740.63;5092024;27;45351;-70
2022/04/25 05:31:40;;;;;;;;;41.50;38.25;;;;;11.57;67.62;100739.59;5078456;28;45650;-69
2022/04/25 05:34:05;;;;;;;;;42.50;32.25;;;;;11.66;66.92;100736.81;5082124;27;45395;-69
2022/04/25 05:36:31;;;;;;;;;42.50;35.75;;;;;11.74;66.07;100743.34;5080049;28;45404;-69
2022/04/25 05:38:56;;;;;;;;;45.75;36.75;;;;;11.78;66.25;100747.50;5082904;27;45251;-68
2022/04/25 05:41:22;;;;;;;;;51.75;39.25;;;;;11.67;65.99;100738.53;5083432;27;46151;-69
2022/04/25 05:43:48;;;;;;;;;51.50;40.00;;;;;11.67;66.20;100751.28;5085505;28;45429;-69
2022/04/25 05:46:13;;;;;;;;;51.25;40.00;;;;;11.71;65.82;100753.53;5084858;27;45425;-69
2022/04/25 05:54:07;;;;;;;;;45.75;38.50;;;;;11.58;66.28;100758.50;5085855;28;45310;-69
2022/04/25 05:56:32;;;;;;;;;55.00;41.00;;;;;11.63;66.38;100766.19;5082759;27;45342;-69
2022/04/25 05:58:58;;;;;;;;;48.00;39.50;;;;;11.76;66.06;100766.72;5078170;27;45526;-69
2022/04/25 06:01:23;;;;;;;;;51.00;42.00;;;;;11.66;66.05;100769.47;5078470;28;45271;-69
2022/04/25 06:03:49;;;;;;;;;45.25;38.75;;;;;11.51;66.34;100767.44;5077774;28;45397;-69
2022/04/25 06:06:14;;;;;;;;;56.00;43.50;;;;;11.59;66.11;100779.28;5081049;28;45358;-69
2022/04/25 06:08:39;;;;;;;;;53.25;40.75;;;;;11.48;66.19;100786.78;5074159;28;45574;-69
2022/04/25 06:11:05;;;;;;;;;58.25;45.00;;;;;11.58;66.54;100787.59;5076460;28;47200;-70
2022/04/25 06:13:30;;;;;;;;;57.50;44.25;;;;;11.54;66.24;100791.63;5078407;27;45305;-70
2022/04/25 06:15:56;;;;;;;;;55.75;42.75;;;;;11.78;66.26;100791.03;5074963;28;45324;-69
2022/04/25 06:18:22;;;;;;;;;48.00;38.25;;;;;11.97;64.85;100802.66;5078273;27;45701;-72
2022/04/25 06:20:49;;;;;;;;;48.50;41.75;;;;;11.94;64.70;100791.19;5075867;28;48001;-69
2022/04/25 06:23:14;;;;;;;;;53.25;40.75;;;;;11.63;65.46;100799.72;5070011;28;45572;-69
2022/04/25 06:25:39;;;;;;;;;58.00;47.50;;;;;11.61;65.76;100801.75;5072238;28;45427;-71
2022/04/25 06:28:05;;;;;;;;;52.50;42.75;;;;;11.63;65.31;100799.72;5091241;27;45277;-71
2022/04/25 06:30:30;;;;;;;;;55.00;44.50;;;;;11.79;64.91;100799.06;5083687;27;45638;-70
2022/04/25 06:33:02;;;;;;;;;58.75;42.75;;;;;11.88;64.34;100803.56;5083425;28;45285;-71
2022/04/25 06:35:28;;;;;;;;;57.00;44.75;;;;;11.97;64.26;100808.09;5080773;28;45476;-70
2022/04/25 06:37:54;;;;;;;;;52.25;43.75;;;;;11.84;64.44;100813.03;5083095;28;45408;-70
2022/04/25 06:40:20;;;;;;;;;55.25;46.50;;;;;11.92;63.86;100815.00;5083312;27;46521;-69
2022/04/25 06:42:46;;;;;;;;;59.50;47.00;;;;;11.88;64.45;100816.34;5082956;27;45481;-71
2022/04/25 06:45:13;;;;;;;;;55.50;41.50;;;;;11.80;64.33;100808.09;5073980;27;45223;-70
2022/04/25 06:47:38;;;;;;;;;55.50;46.00;;;;;11.70;64.72;100811.69;5082432;28;45411;-70
2022/04/25 06:50:05;;;;;;;;;53.75;42.25;;;;;11.87;63.79;100822.78;5071272;27;45374;-70
2022/04/25 06:52:30;;;;;;;;;55.25;45.25;;;;;11.86;64.20;100811.03;5081944;28;45401;-69
2022/04/25 06:54:57;;;;;;;;;51.50;42.25;;;;;11.81;64.32;100818.81;5081280;28;45489;-70
2022/04/25 06:57:22;;;;;;;;;50.50;40.50;;;;;11.86;63.90;100812.91;5081155;27;45473;-69
2022/04/25 06:59:47;;;;;;;;;50.50;42.00;;;;;11.88;63.77;100816.34;5068509;27;46979;-71
2022/04/25 07:02:15;;;;;;;;;59.75;43.50;;;;;12.01;64.31;100819.50;5074656;28;45405;-69
2022/04/25 07:04:40;;;;;;;;;53.75;40.00;;;;;12.15;63.15;100816.25;5075179;28;45350;-70
2022/04/25 07:07:05;;;;;;;;;52.50;44.00;;;;;12.18;62.59;100821.38;5078967;27;45325;-70
2022/04/25 07:09:31;;;;;;;;;55.00;44.50;;;;;12.26;62.62;100823.31;5069002;27;47009;-70
2022/04/25 07:11:56;;;;;;;;;62.00;46.50;;;;;12.30;62.05;100827.44;5076684;27;45441;-70
2022/04/25 07:14:23;;;;;;;;;63.50;49.75;;;;;12.29;62.93;100826.56;5068473;27;45267;-71
2022/04/25 07:16:48;;;;;;;;;55.25;43.00;;;;;12.11;63.03;100831.19;5082511;28;45516;-70
2022/04/25 07:19:15;;;;;;;;;55.00;43.75;;;;;12.19;62.48;100838.59;5068588;28;48256;-72
2022/04/25 07:29:52;;;;;;;;;49.25;40.50;;;;;12.07;63.93;100835.22;5066362;28;45686;-71
2022/04/25 07:32:18;;;;;;;;;60.00;46.75;;;;;12.39;62.45;100830.06;5083448;28;45806;-70
2022/04/25 07:34:48;;;;;;;;;53.75;41.00;;;;;12.45;62.16;100834.88;5083401;27;45175;-70
2022/04/25 07:37:15;;;;;;;;;55.25;45.00;;;;;12.66;61.57;100839.97;5080322;28;45379;-70
2022/04/25 07:39:41;;;;;;;;;58.50;46.75;;;;;12.62;60.97;100837.75;5083078;27;46249;-70
2022/04/25 07:42:07;;;;;;;;;57.50;45.00;;;;;12.81;61.17;100832.06;5083224;27;45370;-71
2022/04/25 07:44:32;;;;;;;;;54.50;45.50;;;;;13.00;60.58;100831.88;5083897;27;45295;-70
2022/04/25 07:46:59;;;;;;;;;54.50;44.75;;;;;13.16;59.98;100840.13;5082552;27;45372;-71
2022/04/25 07:49:25;;;;;;;;;49.00;39.25;;;;;12.79;60.17;100836.81;5074992;27;46212;-71
2022/04/25 07:51:51;;;;;;;;;42.25;37.50;;;;;12.96;59.99;100838.63;5079164;28;45383;-71
2022/04/25 07:54:16;;;;;;;;;60.75;48.00;;;;;13.02;59.66;100832.53;5075321;27;45739;-71
2022/04/25 07:56:45;;;;;;;;;59.25;46.25;;;;;13.18;60.00;100820.88;5077784;28;45291;-69
2022/04/25 07:59:10;;;;;;;;;53.50;44.25;;;;;13.32;59.19;100844.81;5073756;28;45548;-69
2022/04/25 08:01:36;;;;;;;;;49.25;38.00;;;;;13.47;58.68;100847.78;5076190;28;45673;-70
2022/04/25 08:04:02;;;;;;;;;51.25;41.75;;;;;13.79;58.38;100847.03;5071791;28;45462;-70
2022/04/25 08:06:27;;;;;;;;;55.25;45.75;;;;;13.82;57.21;100855.75;5078323;28;45530;-70
2022/04/25 08:08:54;;;;;;;;;55.00;44.50;;;;;13.95;56.61;100850.66;5080388;28;45371;-70
2022/04/25 08:11:20;;;;;;;;;49.00;39.25;;;;;14.01;56.86;100852.72;5077551;27;45401;-70
2022/04/25 08:19:16;;;;;;;;;54.25;42.50;;;;;14.33;55.34;100861.97;5064691;28;45801;-70
2022/04/25 08:21:42;;;;;;;;;50.75;41.75;;;;;14.07;55.24;100869.47;5068911;28;45602;-70
2022/04/25 08:24:08;;;;;;;;;57.50;46.00;;;;;13.73;56.44;100872.28;5082656;28;45389;-70
2022/04/25 08:26:34;;;;;;;;;57.25;46.00;;;;;13.81;56.85;100883.22;5082635;27;45431;-71
2022/04/25 08:29:00;;;;;;;;;53.00;40.50;;;;;13.88;56.72;100871.47;5091914;27;47932;-71
2022/04/25 08:31:26;;;;;;;;;52.25;44.25;;;;;13.93;55.92;100881.91;5076875;28;45338;-71
2022/04/25 08:33:51;;;;;;;;;47.50;38.50;;;;;14.04;56.43;100884.31;5076343;28;45294;-71
2022/04/25 08:36:18;;;;;;;;;53.00;42.75;;;;;13.98;56.21;100894.03;5075633;28;45306;-72
2022/04/25 08:38:45;;;;;;;;;45.25;38.50;;;;;13.90;55.78;100887.69;5082764;27;46403;-71
2022/04/25 08:41:17;;;;;;;;;52.50;41.50;;;;;13.72;56.43;100895.16;5082348;27;45244;-71
2022/04/25 08:43:43;;;;;;;;;46.50;38.50;;;;;13.36;57.20;100900.81;5080421;27;45971;-70
2022/04/25 08:46:10;;;;;;;;;51.25;40.50;;;;;13.40;57.17;100906.78;5073587;28;45387;-70
2022/04/25 08:48:39;;;;;;;;;52.75;44.25;;;;;13.44;57.10;100903.53;5080392;28;46373;-69
2022/04/25 08:51:05;;;;;;;;;51.25;42.75;;;;;13.28;57.91;100899.91;5071237;28;45305;-71
2022/04/25 08:53:33;;;;;;;;;54.50;41.25;;;;;13.45;57.70;100899.81;5079950;28;45204;-70
2022/04/25 08:56:10;;;;;;;;;55.00;42.50;;;;;13.63;57.14;100905.19;5072828;28;45484;-70
2022/04/25 08:58:41;;;;;;;;;49.75;40.00;;;;;13.66;56.91;100907.59;5074666;27;46172;-70
2022/04/25 09:01:09;;;;;;;;;52.25;43.50;;;;;13.99;56.00;100911.28;5073296;28;45222;-71
2022/04/25 09:03:35;;;;;;;;;53.00;42.50;;;;;13.91;55.79;100917.56;5073093;27;45266;-70
2022/04/25 09:06:01;;;;;;;;;50.25;42.50;;;;;14.24;55.69;100914.94;5076665;28;45563;-70
2022/04/25 09:08:26;;;;;;;;;44.75;39.00;;;;;14.26;55.71;100905.53;5071628;28;45920;-70
2022/04/25 09:12:09;;;;;;;;;56.25;40.00;;;;;14.37;55.38;100904.34;5072591;28;45629;-70
2022/04/25 09:13:37;;;;;;;;;43.00;36.25;;;;;14.78;54.56;100911.56;5069470;27;45116;-71
2022/04/25 09:16:04;;;;;;;;;49.50;39.75;;;;;14.75;54.80;100917.41;5074801;28;45453;-70
2022/04/25 09:18:30;;;;;;;;;48.75;41.00;;;;;14.95;54.31;100901.47;5071317;28;45675;-70
2022/04/25 09:20:58;;;;;;;;;47.25;37.50;;;;;14.96;53.15;100907.81;5074143;28;45349;-70
2022/04/25 09:23:23;;;;;;;;;46.75;39.75;;;;;14.75;53.35;100917.41;5071173;28;45463;-71
2022/04/25 09:26:08;;;;;;;;;46.50;37.25;;;;;15.00;53.62;100922.84;5075062;28;45479;-71
2022/04/25 09:28:44;;;;;;;;;44.50;36.50;;;;;15.43;52.74;100922.41;5094381;27;47145;-72
2022/04/25 09:31:13;;;;;;;;;33.25;31.00;;;;;15.32;51.75;100919.19;5078883;27;45302;-71
2022/04/25 09:33:38;;;;;;;;;44.25;36.25;;;;;15.57;51.40;100916.22;5085666;28;45345;-71
2022/04/25 09:36:06;;;;;;;;;33.75;32.00;;;;;15.64;51.73;100923.72;5085049;27;45483;-69
2022/04/25 09:38:36;;;;;;;;;40.75;33.75;;;;;15.97;51.04;100922.56;5084348;28;47296;-71
2022/04/25 09:41:04;;;;;;;;;40.25;36.25;;;;;16.10;49.67;100909.13;5084031;28;45971;-70
2022/04/25 09:43:34;;;;;;;;;41.75;36.50;;;;;16.52;50.09;100910.56;5085642;28;45333;-71
2022/04/25 09:46:14;;;;;;;;;47.25;39.00;;;;;16.89;49.91;100920.75;5084564;27;45175;-72
2022/04/25 09:48:43;;;;;;;;;48.50;39.25;;;;;17.00;47.29;100915.69;5082961;28;46355;-71
2022/04/25 09:51:17;;;;;;;;;41.50;37.00;;;;;17.10;48.11;100912.66;5074648;28;45267;-70
2022/04/25 09:53:44;;;;;;;;;45.00;36.00;;;;;17.31;46.95;100917.44;5081501;27;45234;-70
2022/04/25 09:56:15;;;;;;;;;39.50;33.75;;;;;17.51;47.27;100915.84;5077212;28;45547;-72
2022/04/25 09:58:43;;;;;;;;;46.00;37.25;;;;;17.11;47.91;100920.72;5076983;27;46258;-71
2022/04/25 10:01:13;;;;;;;;;35.50;32.50;;;;;17.40;46.67;100919.88;5076464;28;45226;-70
2022/04/25 10:03:40;;;;;;;;;40.25;33.75;;;;;17.81;47.25;100917.56;5079578;27;45444;-70
2022/04/25 10:06:06;;;;;;;;;36.00;33.75;;;;;17.95;44.66;100915.84;5080249;28;45510;-70
2022/04/25 10:08:35;;;;;;;;;36.50;33.75;;;;;18.32;44.28;100909.28;5074742;27;45272;-70
2022/04/25 10:11:07;;;;;;;;;35.75;33.75;;;;;18.49;43.57;100918.13;5076591;28;45433;-70
2022/04/25 10:13:33;;;;;;;;;36.25;32.25;;;;;18.37;42.53;100920.56;5085659;27;45284;-70
2022/04/25 10:16:00;;;;;;;;;34.75;31.25;;;;;18.23;43.75;100921.44;5084270;27;45463;-71
2022/04/25 10:18:27;;;;;;;;;37.75;34.00;;;;;18.55;43.42;100920.97;5070655;28;46342;-70
2022/04/25 10:20:53;;;;;;;;;35.00;32.00;;;;;19.08;42.10;100910.44;5077655;28;46055;-72
2022/04/25 10:23:18;;;;;;;;;40.25;33.75;;;;;18.90;41.72;100918.34;5085480;27;45399;-71
2022/04/25 10:25:59;;;;;;;;;40.75;34.50;;;;;18.92;41.57;100905.25;5078085;28;45592;-69
2022/04/25 10:28:33;;;;;;;;;33.50;30.00;;;;;19.62;40.69;100916.16;5085353;27;48078;-70
2022/04/25 10:31:02;;;;;;;;;29.50;29.50;;;;;19.32;39.82;100907.25;5080023;27;45515;-70
2022/04/25 10:33:48;;;;;;;;;28.75;27.00;;;;;19.31;40.72;100913.81;5084939;27;45235;-70
2022/04/25 10:36:38;;;;;;;;;33.25;30.50;;;;;19.26;39.34;100910.81;5079377;28;45409;-71
2022/04/25 10:39:19;;;;;;;;;31.75;30.25;;;;;19.42;39.11;100904.13;5066753;28;45350;-70
2022/04/25 10:44:42;;;;;;;;;30.00;28.00;;;;;19.95;38.48;100913.56;5064579;28;45348;-72
2022/04/25 10:47:09;;;;;;;;;19.75;16.50;;;;;19.55;35.94;100911.66;5084560;28;45626;-70
2022/04/25 10:49:42;;;;;;;;;25.67;25.00;;;;;19.52;36.22;100914.81;5079819;28;47875;-70
2022/04/25 10:55:14;;;;;;;;;24.50;24.25;;;;;19.88;36.55;100907.16;5070725;28;45309;-72
2022/04/25 10:58:04;;;;;;;;;24.33;20.33;;;;;20.80;35.61;100914.88;5077368;28;45553;-71
2022/04/25 11:00:39;;;;;;;;;22.33;20.67;;;;;21.21;34.87;100909.16;5081420;28;47882;-71
2022/04/25 11:03:09;;;;;;;;;19.00;19.00;;;;;20.98;34.16;100910.41;5079009;27;45391;-71
2022/04/25 11:05:36;;;;;;;;;27.25;24.50;;;;;20.99;34.01;100914.03;5074427;28;45318;-70
2022/04/25 11:08:20;;;;;;;;;18.00;18.00;;;;;21.52;33.05;100903.81;5077309;27;45462;-71
2022/04/25 11:10:48;;;;;;;;;21.75;21.75;;;;;20.95;32.96;100910.88;5073382;28;45235;-70
2022/04/25 11:13:22;;;;;;;;;20.75;19.00;;;;;20.49;33.43;100902.53;5082549;27;45604;-69
2022/04/25 11:15:48;;;;;;;;;25.25;24.75;;;;;21.19;33.65;100905.75;5075840;28;45428;-71
2022/04/25 11:18:44;;;;;;;;;19.67;19.67;;;;;22.00;33.66;100903.47;5071672;27;45392;-71
2022/04/25 11:21:18;;;;;;;;;22.50;22.50;;;;;22.21;32.57;100905.91;5071838;28;46216;-71
2022/04/25 11:23:43;;;;;;;;;23.67;18.00;;;;;21.85;32.04;100912.00;5068626;28;45467;-72
2022/04/25 11:26:30;;;;;;;;;21.33;20.67;;;;;21.90;32.73;100917.75;5078507;28;45481;-71
2022/04/25 11:28:55;;;;;;;;;23.00;19.67;;;;;22.20;32.74;100911.69;5095858;27;45421;-71
2022/04/25 11:31:21;;;;;;;;;20.33;19.67;;;;;22.26;31.32;100908.91;5076596;28;45440;-71
2022/04/25 11:33:48;;;;;;;;;16.67;14.67;;;;;22.44;32.05;100909.00;5076906;27;45310;-71
2022/04/25 11:36:14;;;;;;;;;17.67;17.67;;;;;22.56;30.73;100903.59;5075829;28;45431;-72
2022/04/25 11:41:38;;;;;;;;;15.67;14.33;;;;;22.79;28.99;100903.88;5078124;28;45451;-72
2022/04/25 11:44:07;;;;;;;;;14.67;13.33;;;;;22.21;28.96;100910.63;5083858;27;45325;-72